International TAF

Brunei, China, Hong Kong, Malaysia, Philippines, Taiwan

The availability of aerodrome forecasts from overseas locations is dependent on the regular international exchange of data. Some locations may at times be absent. If this problem persists, please advise webav@bom.gov.au

 back to top

ZSPD 19/11/2017 UTC

TAF ZSPD 190921Z 1912/2012 01004MPS 6000 BKN013 TX13/2006Z
TN07/1921Z

WIDD 19/11/2017 UTC

TAF WIDD 191100Z 1912/2012 26005KT 9000 SCT014
PROB30 TEMPO 1918/1922 6000 -TSRA FEW014CB

WAMM 19/11/2017 UTC

TAF WAMM 191100Z 1912/2018 07002KT 9999 SCT022
BECMG 1923/2001 32008KT

WBSB 19/11/2017 UTC

TAF WBSB 191100Z 1912/2018 20003KT 9999 FEW015 FEW016CB
TEMPO 1914/1916 7000 SHRA TSRA
BECMG 2003/2005 30010KT SCT016 FEW017CB

WBKK 19/11/2017 UTC

TAF WBKK 191100Z 1912/2012 12007KT 9999 FEW014
TEMPO 1913/1917 5000 RA FEW012 FEW016CB SCT035

WBGG 19/11/2017 UTC

TAF WBGG 191100Z 1912/2012 18005KT 9999 SCT020 BKN150
TEMPO 1912/1915 4000 RA FEW005 SCT018

VHHH 19/11/2017 UTC

TAF VHHH 191100Z 1912/2018 03010KT 8000 FEW010 SCT020 TX20/1912Z
TN17/1923Z TEMPO 1912/1915 10010KT

VMMC 19/11/2017 UTC

TAF VMMC 191100Z 1912/2018 02013KT 9000 FEW015 SCT025

ZGSZ 19/11/2017 UTC

TAF ZGSZ 190917Z 1912/2012 04005MPS 6000 BKN030 TX20/2006Z
TN17/1923Z

RCTP 19/11/2017 UTC

TAF RCTP 191103Z 1912/2018 06018KT 9999 FEW010 BKN018 BKN030
TEMPO 1912/1918 4000 RA FEW008 BKN013 BKN025
BECMG 1918/1920 07010KT FEW008 BKN012 BKN025
TEMPO 1920/2002 SCT005 BKN008 BKN020
BECMG 2002/2004 05015KT
TEMPO 2010/2016 05020KT 5000 RA SCT005 BKN008 BKN020

RCKH 19/11/2017 UTC

TAF RCKH 191103Z 1912/2018 35005KT 9999 FEW010 BKN040
TEMPO 1918/1924 04005KT 5000 BR
TEMPO 2003/2009 31010KT

ZGGG 19/11/2017 UTC

TAF ZGGG 190902Z 1912/2012 01004MPS 8000 OVC033 TX15/2007Z
TN12/1922Z

ZBAA 19/11/2017 UTC

TAF ZBAA 190930Z 1912/2012 18004MPS 5000 BR NSC TX09/2007Z
TNM09/21Z

ZSSS 19/11/2017 UTC

TAF ZSSS 190911Z 1912/2012 02004MPS 6000 SCT020 TX13/2006Z
TN06/1921Z

ZBTJ 19/11/2017 UTC

TAF ZBTJ 190851Z 1912/2012 21003MPS 5000 HZ NSC TX08/2007Z
TNM04/22Z BECMG 1918/1919 2000 BR BECMG 1923/1924 3000 HZ

ZBYN 19/11/2017 UTC

TAF ZBYN 190912Z 1912/2012 09003MPS 3000 HZ NSC TX06/2007Z
TNM08/22Z

ZSHC 19/11/2017 UTC

TAF ZSHC 190901Z 1912/2012 06003MPS 3000 BR SCT023 TX12/2006Z
TN07/1921Z

ZSOF 19/11/2017 UTC

TAF ZSOF 190900Z 191212 03003MPS 3000 BR NSC TX11/07Z TN03/22Z

ZWWW 19/11/2017 UTC

TAF ZWWW 190906Z 1912/2012 33004MPS 2000 BR NSC TX02/2008Z
TNM02/23Z BECMG 1914/1915 20003MPS 1100 BR BKN007 TEMPO 1916/1920
0700
-SHSN FZFG BKN004 BECMG 2002/2003 36004MPS BECMG 2005/2006 1600 BR
BKN011

ZYTL 19/11/2017 UTC

TAF ZYTL 190912Z 1912/2012 31004MPS CAVOK TX07/2006Z TNM02/22Z

RPLL 19/11/2017 UTC

TAF RPLL 191100Z 1912/2018 10006KT 9999 FEW025 SCT100 TX33/2006Z
TN26/1921Z TEMPO 1912/1918 12005KT SCT023 BKN090
TEMPO 1918/1924 VRB03KT FEW023 BKN100

RPVM 19/11/2017 UTC

TAF RPVM 191100Z 1912/2018 05006KT 9999 FEW020 SCT300
TEMPO 1912/1918 34005KT FEW020 BKN300
TEMPO 2003/2009 04010KT FEW018CB FEW020 SCT100

RPMZ 19/11/2017 UTC

TAF RPMZ 191100Z 1912/2012 08004KT 9999 FEW017 SCT100
TEMPO 1912/1918 27004KT FEW017 SCT100 BKN300

Australian International

The availability of aerodrome forecasts from overseas locations is dependent on the regular international exchange of data. Some locations may at times be absent. If this problem persists, please advise webav@bom.gov.au

 back to top

YMML 19/11/2017 UTC

TAF YMML 191110Z 1912/2018
VRB05KT CAVOK
FM191800 36012KT CAVOK
FM200600 16014KT CAVOK
BECMG 2010/2012 27006KT CAVOK
RMK
T 19 17 16 20 Q 1021 1021 1021 1023

YSSY 19/11/2017 UTC

TAF YSSY 191105Z 1912/2018
13008KT 9999 -SHRA SCT025 BKN035
FM192300 12015KT 9999 SCT035
FM200900 12008KT 9999 SCT030
RMK
T 20 19 18 20 Q 1025 1024 1023 1025

YBBN 19/11/2017 UTC

TAF AMD YBBN 191111Z 1912/2018
20005KT 9999 -SHRA SCT025
FM192300 14012KT 9999 -SHRA SCT030
FM200100 12014KT 9999 SCT035
FM200900 13010KT 9999 FEW030
FM201000 22006KT 9999 -SHRA SCT025
INTER 1921/2002 3000 SHRA BKN015
RMK
T 19 18 17 20 Q 1019 1018 1017 1019

YSCB 19/11/2017 UTC

TAF YSCB 191101Z 1912/2012
11012KT 9999 BKN020
BECMG 1920/1921 10012KT 9999 SCT030 SCT045
FM200000 09012KT CAVOK
FM201000 09008KT 9999 SCT020
RMK
T 14 14 12 15 Q 1026 1025 1025 1026

YBCS 19/11/2017 UTC

TAF YBCS 191104Z 1912/2012
14007KT 9999 SCT025 SCT040
FM200000 05012KT 9999 FEW028 SCT045
FM200800 14007KT 9999 SCT025 SCT040
RMK
T 25 24 24 25 Q 1012 1011 1010 1012

YBAS 19/11/2017 UTC

TAF AMD YBAS 191108Z 1912/2012
11006KT CAVOK
FM191400 06005KT 9999 SCT080
FM192000 33008KT 9999 SCT080
PROB30 TEMPO 2000/2010 VRB25G35KT 1000 TSRA BKN040 SCT060CB
RMK
T 28 25 23 24 Q 1011 1011 1010 1012

YBMA 19/11/2017 UTC

TAF YBMA 190950Z 1912/1924
18008KT CAVOK
RMK
T 28 25 22 24 Q 1009 1009 1008 1010

YPAD 19/11/2017 UTC

TAF YPAD 191104Z 1912/2018
09012KT CAVOK
FM191800 05014KT CAVOK
RMK FM191200 MOD TURB BLW 5000FT TILL192300
FM201000 MOD TURB BLW 5000FT
T 25 23 22 23 Q 1013 1014 1014 1015

YPDN 19/11/2017 UTC

TAF YPDN 191110Z 1912/2018
05005KT 9999 SCT030
FM200200 35010KT 9999 FEW020
PROB30 TEMPO 1912/1920 VRB20G40KT 1000 TSRA BKN010 SCT020CB
RMK
T 29 28 27 26 Q 1009 1009 1008 1009

YPTN 19/11/2017 UTC

TAF YPTN 191109Z 1912/2012
32007KT 9999 FEW040
PROB30 TEMPO 2004/2012 VRB20G40KT 1000 TSRA BKN010 SCT020CB
RMK
T 28 27 26 26 Q 1009 1009 1009 1009

YPPH 19/11/2017 UTC

TAF YPPH 191105Z 1912/2018
23012KT 9999 SCT040
FM191400 19005KT 9999 SCT030
FM200200 24012KT CAVOK
FM201400 18005KT 9999 BKN025
RMK
T 18 16 13 13 Q 1014 1014 1012 1013

YPLM 19/11/2017 UTC

TAF YPLM 191105Z 1912/2012
24018KT CAVOK
FM191400 20010KT CAVOK
FM200700 22020KT CAVOK
RMK
T 23 21 19 18 Q 1010 1012 1011 1011

YCAR 19/11/2017 UTC

TAF AMD YCAR 190209Z 1902/1912
21017KT CAVOK
RMK
T 25 25 25 22 Q 1012 1011 1010 1011

YPCC 19/11/2017 UTC

TAF YPCC 191105Z 1912/2012
14014KT 9999 -SHRA SCT030
RMK
T 27 27 27 26 Q 1010 1012 1011 1010

YPPD 19/11/2017 UTC

TAF YPPD 191105Z 1912/2012
30012KT CAVOK
FM191600 24008KT CAVOK
FM200400 31014KT CAVOK
RMK
T 26 25 24 22 Q 1009 1009 1008 1008

YBTL 19/11/2017 UTC

TAF YBTL 191135Z 1912/2012
06010KT 9999 -SHRA SCT020 SCT040
FM200000 06015KT 9999 -SHRA SCT025 SCT050
FM200800 06010KT 9999 -SHRA SCT020 SCT040
INTER 1913/2002 3000 SHRA BKN010
RMK
T 26 25 25 26 Q 1012 1011 1011 1013

YMHB 19/11/2017 UTC

TAF YMHB 191137Z 1912/2012
VRB05KT CAVOK
FM191600 34008KT CAVOK
FM200100 15012KT CAVOK
FM200700 07010KT CAVOK
RMK
T 18 17 16 18 Q 1024 1025 1024 1025

YPXM 19/11/2017 UTC

TAF AMD YPXM 191105Z 1912/2012
16008KT 9999 BKN020
FM200000 16012KT 9999 BKN010
RMK
T 25 25 25 25 Q 1011 1013 1011 1010

New Zealand

The availability of aerodrome forecasts from overseas locations is dependent on the regular international exchange of data. Some locations may at times be absent. If this problem persists, please advise webav@bom.gov.au

 back to top

NZAA 19/11/2017 UTC

TAF NZAA 191109Z 1912/2012 15008KT 9999 BKN050
BECMG 1923/2001 24010KT
BECMG 2007/2009 07005KT

NZWN 19/11/2017 UTC

TAF NZWN 191109Z 1912/2012 18012KT 9999 FEW025 BKN035
BECMG 1918/1920 18015G25KT
TEMPO 2008/2012 7000 SHRA BKN008

NZCH 19/11/2017 UTC

TAF NZCH 191109Z 1912/2012 VRB02KT 9999 FEW014 BKN020
TEMPO 1914/1920 BKN014
BECMG 1918/1920 20012KT
BECMG 2007/2009 VRB02KT

YLHI 19/11/2017 UTC

TAF YLHI 191058Z 1912/2012
10014KT 9999 -SHRA SCT020 BKN040
RMK
T 19 18 18 20 Q 1020 1019 1019 1020

YSNF 19/11/2017 UTC

TAF YSNF 191100Z 1912/2012
18012KT 9999 -SHRA SCT015 BKN020
FM191500 15010KT 9999 -SHRA SCT012 BKN020
INTER 1912/1922 4000 SHRA BKN010
INTER 2006/2012 4000 SHRA BKN010
RMK
T 17 17 17 19 Q 1014 1013 1013 1015

Indonesia, Malaysia, Myanmar, Singapore, Thailand, Vietnam

The availability of aerodrome forecasts from overseas locations is dependent on the regular international exchange of data. Some locations may at times be absent. If this problem persists, please advise webav@bom.gov.au

 back to top

WADA

TAF not available.

WAAA 19/11/2017 UTC

TAF WAAA 191100Z 1912/2018 10004KT 8000 SCT018 PROB40 TEMPO 1915/1919 6000 -RA FEW017CB
BECMG 2001/2003 34010KT 9999 FEW020 TEMPO 2006/2010 5000 -TSRA FEW017CB SCT018 BECMG
2011/2013 09003KT 8000

WIII 19/11/2017 UTC

TAF WIII 191100Z 1912/2018 20005KT 6000 FEW019CB SCT020
BECMG 1914/1916 VRB03KT 5000 HZ SCT020
BECMG 2002/2004 35010KT 9000 NSW

WIHH 19/11/2017 UTC

TAF WIHH 191100Z 1912/2012 21006KT 5000 HZ SCT021 TEMPO 1912/1914 4000 -RA FEW018CB
SCT019 BECMG 1915/1917 08004KT 4000 HZ SCT020 BECMG 2002/2004 16009KT 7000 FEW025

FTID34 WIHH 191100

WIMM 19/11/2017 UTC

TAF WIMM 191100Z 1912/2012 VRB05KT 4500 HZ SCT018
TEMPO 1918/1921 24008KT 3000 -TSRA FEW017CB SCT018
BECMG 2003/2005 34010KT 9999 NSW

WIPP 19/11/2017 UTC

TAF WIPP 191100Z 1912/2012 30006KT 9999 SCT012
PROB30 TEMPO 1916/1920 5000 RA FEW015CB
TEMPO 1921/1924 00000KT 3000 BR
TEMPO 2007/2011 33010KT 3000 TSRA BKN012 FEW015CB

WIKD

TAF not available.

WARR 19/11/2017 UTC

TAF WARR 191100Z 1912/2012 20005KT 6000 SCT018
BECMG 1914/1916 27005KT 4000 HZ FEW020
BECMG 2000/2002 30010KT 9000 NSW SCT020
TEMPO 2006/2010 4000 TSRA SCT018CB

WADD 19/11/2017 UTC

TAF WADD 191100Z 1912/2012 VRB05KT 9999 FEW015CB SCT016
TEMPO 1912/1916 5000 RA
TEMPO 2006/2010 4000 TSRA FEW013CB BKN014

WRRA

TAF not available.

WALL 19/11/2017 UTC

TAF WALL 191100Z 1912/2018 08003KT 9999 FEW018CB FEW018 BECMG 1912/1914 SCT018 BECMG
1916/1918 25003KT TEMPO 1918/1921 7000 -RA FEW017CB SCT018 BECMG 2003/2005 16005KT

WSSS 19/11/2017 UTC

TAF WSSS 191100Z 1912/2018 28008KT 9999 FEW018CB SCT020
TEMPO 2005/2009 3000 TSRA FEW012CB BKN015

WSAP 19/11/2017 UTC

TAF WSAP 191100Z 1912/2018 28008KT 9999 FEW018CB SCT020
TEMPO 2005/2009 3000 TSRA FEW012CB BKN015

WMKK 19/11/2017 UTC

TAF WMKK 191100Z 1912/2018 26007KT 9999 FEW017CB SCT140 BKN280
TEMPO 2007/2011 4000 TSRA FEW015CB SCT018

WMSA 19/11/2017 UTC

TAF WMSA 191100Z 1912/2012 27007KT 9999 FEW017CB SCT140 BKN280
TEMPO 2007/2011 3000 TSRA FEW015CB SCT018

WMKP 19/11/2017 UTC

TAF WMKP 191100Z 1912/2012 28005KT 9000 FEW020 SCT140 BKN270
TEMPO 1916/1920 6000 TSRA FEW010 FEW017CB SCT023

WMKJ 19/11/2017 UTC

TAF WMKJ 191100Z 1912/2012 VRB02KT 9999 FEW017CB SCT018 BKN280
TEMPO 2005/2009 4000 TSRA FEW015CB SCT018

WMKD 19/11/2017 UTC

TAF WMKD 191100Z 1912/2012 08005KT 9999 FEW024 SCT160 BKN280 PROB30
TEMPO 2008/2012 7000 -TSRA FEW017CB

WMKB 19/11/2017 UTC

TAF WMKB 191100Z 1912/2012 07005KT 9000 FEW025 SCT140 BKN270

VTBD 19/11/2017 UTC

TAF VTBD 191100Z 1912/2018 34005KT 9000 FEW020 SCT040
BECMG 1920/1922 5000 BR
BECMG 2001/2003 04005KT 9999 NSW FEW030 SCT100
TEMPO 2008/2014 6000 -SHRA FEW018CB SCT035 BKN100

VTBS 19/11/2017 UTC

TAF VTBS 191100Z 1912/2018 34005KT 9000 FEW020 SCT040
BECMG 1920/1922 5000 BR
BECMG 2001/2003 04005KT 9999 NSW FEW030 SCT100
TEMPO 2008/2014 6000 -SHRA FEW018CB SCT035 BKN100

VTBU 19/11/2017 UTC

TAF VTBU 191100Z 1912/2012 15006KT 4000 BR FEW020 SCT100
TEMPO 1912/1917 VRB10KT 3000 -TSRA BR FEW018CB SCT035 BKN100
BECMG 1917/1919 34004KT 3000 BR

VTCC 19/11/2017 UTC

TAF VTCC 191100Z 1912/2018 28005KT 9999 FEW035

VTSP 19/11/2017 UTC

TAF VTSP 191100Z 1912/2018 30008KT 9000 FEW018 SCT020
PROB40 TEMPO 1912/1916 VRB10G20KT 5000 TSRA FEW018CB SCT020 BKN100
TEMPO 2004/2008 VRB10G20KT 5000 TSRA FEW018CB SCT020 BKN100
PROB40 TEMPO 2012/2016 VRB10G20KT 5000 TSRA FEW018CB SCT020 BKN100

VTSS 19/11/2017 UTC

TAF VTSS 191100Z 1912/2012 VRB02KT 9999 FEW020
BECMG 2004/2006 36010KT

VVTS 19/11/2017 UTC

TAF COR VVTS 191144Z 1912/2018 25005KT 9999 BKN013 BKN040
TEMPO 1912/1918 5000 RA
BECMG 2000/2001 04010KT
TEMPO 2000/2004 3000 RA BR

VDPP 19/11/2017 UTC

TAF VDPP 191100Z 1912/2006 03007KT 9000 SCT017 SCT040
TEMPO 1912/1916 5000 TSRA BKN015 FEW017CB OVC040

VVNB 19/11/2017 UTC

TAF VVNB 191100Z 1912/2012 07006KT 9999 FEW025 BKN045
TEMPO 1918/1924 4000 -RA BR SCT008 BKN040

VYYY 19/11/2017 UTC

TAF VYYY 191100Z 1912/2012 32006KT 8000 SCT015 SCT110
TEMPO 1914/1920 6000 BKN014 FEW020CB BKN100
TEMPO 1920/2002 02005KT 4000 BR BKN014 FEW018CB BKN100
TEMPO 2002/2006 04006KT 7000 BKN015 FEW018CB BKN100
TEMPO 2006/2012 14006KT 5000 -TSRA BKN012 FEW018CB BKN090

South America

The availability of aerodrome forecasts from overseas locations is dependent on the regular international exchange of data. Some locations may at times be absent. If this problem persists, please advise webav@bom.gov.au

 back to top

SAEZ 19/11/2017 UTC

TAF SAEZ 191100Z 1912/2012 31015KT CAVOK TX25/1919Z TN09/2008Z
BECMG 1913/1915 24015KT SCT025
BECMG 1920/1923 18010KT
BECMG 2001/2003 09010KT
BECMG 2008/2010 04015G25KT BKN020 BKN100

SAVC

TAF not available.

SCIE 19/11/2017 UTC

TAF SCIE 191010Z 1912/2012 21008KT CAVOK TX17/1918Z TN10/2010Z BECMG
1918/1920 23015KT BECMG 2000/2002 21006KT BECMG 2007/2009
17005KT

SACO 19/11/2017 UTC

TAF SACO 191100Z 1912/2012 29010KT CAVOK TX29/1918Z TN15/2010Z
BECMG 1914/1917 16015KT 8000 SCT030
BECMG 1920/1923 09010KT

SCIP 19/11/2017 UTC

TAF SCIP 191030Z 1912/2012 10008KT 9999 SCT020 TN18/1910Z TX23/1921Z
TEMPO 1914/1917 13013KT 7000 -SHRA SCT012 BKN015
BECMG 1920/1922 10013KT SCT020 SCT040
TEMPO 2000/2003 13018KT 7000 -SHRA SCT018 BKN025
BECMG 2006/2008 08018KT
TEMPO 2010/2012 11013KT 6000 -SHRA BKN018

SAZM 19/11/2017 UTC

TAF SAZM 191100Z 1912/2012 25015G25KT CAVOK TX19/1918Z TN07/2010Z
PROB30
TEMPO 1915/1918 5000 SHRA FEW040TCU BKN060
BECMG 2003/2006 34015G25KT

SAME 19/11/2017 UTC

TAF SAME 191100Z 1912/2012 14005KT CAVOK TX30/1920Z TN15/2010Z

SUMU 19/11/2017 UTC

TAF SUMU 191145Z 1912/2012 27020KT CAVOK TX25/1918Z TN10/2010Z
TEMPO 1912/1916 29020G30KT BECMG 1920/1922 17020KT TEMPO 1920/1924
16020G30KT BECMG 2008/2010 06010KT

SAZN

TAF not available.

SCTE 19/11/2017 UTC

TAF SCTE 191041Z 1912/2012 20007KT 9999 BKN040 TX14/1918Z
TN04/2010Z
TEMPO 1914/1924 SCT050

SCCI 19/11/2017 UTC

TAF SCCI 191046Z 1912/2012 24023G35KT 9999 SCT038 TN02/2010Z
TX08/1919Z PROB40
TEMPO 1913/1919 4000 SHRASN SHSN SCT010 BKN022
BECMG 2004/2006 23018G30KT
BECMG 2010/2012 24015KT

SAWG 19/11/2017 UTC

TAF SAWG 191100Z 1912/2012 25015G30KT 9999 FEW035 TX10/1919Z
TN01/2011Z
BECMG 1913/1915 19030G48KT 6000 SHRA SCT020 SCT030TCU OVC050
BECMG 2001/2003 9999 NSW BKN025

SAAR 19/11/2017 UTC

TAF SAAR 191100Z 1912/2012 32015KT CAVOK TX27/1919Z TN14/2007Z
BECMG 1913/1915 25015KT
BECMG 1919/1921 18010KT
BECMG 2002/2004 11010KT

SAZS 19/11/2017 UTC

TAF SAZS 191100Z 1912/2012 30020KT CAVOK TX15/1918Z TN03/2009Z
BECMG 1913/1915 30020G30KT SCT045 BKN100
BECMG 1920/1922 29010KT CAVOK

SCEL 19/11/2017 UTC

TAF SCEL 191010Z 1912/2012 VRB03KT 7000 NSC TX29/1919Z TN11/2010Z
BECMG 1914/1916 19006KT CAVOK BECMG 1919/1921 21014KT BECMG 2001/2003
16006KT BECMG 2005/2007 VRB03KT 7000 NSC

SAWH 19/11/2017 UTC

TAF SAWH 191100Z 1912/2012 25025G35KT 4000 SN BKN006 OVC010
TX06/1919Z TN00/2011Z
BECMG 1914/1916 19020G35KT 2000 SHRASN
BECMG 2008/2010 6000 SHRA BKN010 OVC040

Guam, Japan, Korea

The availability of aerodrome forecasts from overseas locations is dependent on the regular international exchange of data. Some locations may at times be absent. If this problem persists, please advise webav@bom.gov.au

 back to top

PGUA 19/11/2017 UTC

TAF PGUA 191000Z 1910/2016 08012KT 9999 BKN015 QNH2987INS
BECMG 1911/1912 08012KT 9999 SCT015 QNH2980INS
TEMPO 2010/2016 8000 -SHRA BKN015 TX31/2005Z TN26/1917Z

PGUM 19/11/2017 UTC

TAF PGUM 191120Z 1912/2018 06007KT P6SM VCSH FEW020
FM192300 07014KT P6SM VCSH SCT020 SCT050
FM200800 07010KT P6SM VCSH SCT020 SCT050

PGSN 19/11/2017 UTC

TAF PGSN 191120Z 1912/2012 08009KT P6SM VCSH FEW020
FM192200 07014KT P6SM VCSH SCT020 SCT050
FM200800 07010KT P6SM VCSH SCT020 SCT050

PTRO 19/11/2017 UTC

TAF PTRO 191120Z 1912/2012 06008KT P6SM VCSH SCT016 SCT120
FM192300 08014KT P6SM VCSH SCT016 SCT120

RJOO

19/11/2017 UTC

TAF RJOO 191108Z 1912/2018 32006KT 9999 FEW025

RJOB 19/11/2017 UTC

TAF RJOB 191107Z 1912/2018 30004KT 9999 FEW020

RJGG 19/11/2017 UTC

TAF RJGG 191105Z 1912/2018 33014KT 9999 FEW020 BKN040

RJCC 19/11/2017 UTC

TAF RJCC 191105Z 1912/2018 31006KT 9999 FEW020 BKN040 BECMG
1914/1916 18005KT BECMG 2006/2009 33005KT BECMG 2012/2015
19005KT

RJSS 19/11/2017 UTC

TAF RJSS 191106Z 1912/2018 30004KT 9999 FEW020 SCT040 BECMG
2000/2003 16006KT BECMG 2006/2009 32008KT

RJFK 19/11/2017 UTC

TAF RJFK 191105Z 1912/2018 35009KT 9999 FEW030

RJAA 19/11/2017 UTC

TAF RJAA 191107Z 1912/2018 35010KT 9999 FEW030 BECMG 2003/2006
12005KT BECMG 2009/2012 30005KT

RJBB 19/11/2017 UTC

TAF RJBB 191105Z 1912/2018 31013KT 9999 FEW030 SCT050

RJTT 19/11/2017 UTC

TAF RJTT 191105Z 1912/2018 34019KT 9999 FEW030 SCT060 BECMG
1916/1918 01008KT BECMG 2000/2003 16008KT BECMG 2012/2015
31008KT

RJFF 19/11/2017 UTC

TAF RJFF 191106Z 1912/2018 09005KT 9999 FEW030 BKN045 BECMG
1919/1921 33010KT BECMG 2009/2012 15005KT

RJFT 19/11/2017 UTC

TAF RJFT 191106Z 1912/2018 06003KT 9999 FEW030 BECMG 2000/2003
32006KT BECMG 2009/2012 05005KT

RJFU 19/11/2017 UTC

TAF RJFU 191111Z 1912/2018 02007KT 9999 FEW040 BECMG 1914/1916
13005KT BECMG 1921/1923 36010KT BECMG 2012/2015 13005KT

ROAH 19/11/2017 UTC

TAF ROAH 191105Z 1912/2018 04010KT 9999 FEW030 BKN045

RKSS 19/11/2017 UTC

TAF RKSS 191100Z 1912/2018 31005KT CAVOK
TNM06/1921Z TX05/2005Z
BECMG 1914/1915 17006KT
BECMG 2002/2003 9999 FEW010 BKN025 OVC080
TEMPO 2005/2007 24007KT 2800 -RASN
BECMG 2007/2008 32006KT SCT030 BKN120
BECMG 2014/2015 16005KT CAVOK

RKSI 19/11/2017 UTC

TAF RKSI 191100Z 1912/2018 30010KT 9999 SCT030 BKN120
TNM03/1921Z TX06/2006Z
BECMG 2000/2001 33010KT 4200 BR
TEMPO 2002/2007 29010KT 2500 -RASN FEW010 BKN025 BKN110
BECMG 2008/2009 36010KT 7000 NSW

RKSM 19/11/2017 UTC

TAF RKSM 191100Z 1912/2018 30006KT 9999 SCT030 BKN200 TNM02/1921Z
TX06/2006Z

RKPK 19/11/2017 UTC

TAF RKPK 191100Z 1912/2018 30006KT 9999 SCT030 BKN200
TN01/1921Z TX11/2006Z
BECMG 2004/2005 23008KT
BECMG 2015/2016 30006KT

RKPC 19/11/2017 UTC

TAF RKPC 191100Z 1912/2018 18005KT 9999 SCT030 BKN150
TN07/1921Z TX11/2005Z
BECMG 1916/1917 6000 -RA FEW010 BKN025 OVC100
BECMG 1918/1919 35010KT
BECMG 2000/2001 NSW SCT030

Indonesia, Pakistan, Singapore, India, Sri Lanka, United Arab Emirates

The availability of aerodrome forecasts from overseas locations is dependent on the regular international exchange of data. Some locations may at times be absent. If this problem persists, please advise webav@bom.gov.au

 back to top

WIII 19/11/2017 UTC

TAF WIII 191100Z 1912/2018 20005KT 6000 FEW019CB SCT020
BECMG 1914/1916 VRB03KT 5000 HZ SCT020
BECMG 2002/2004 35010KT 9000 NSW

WSSS 19/11/2017 UTC

TAF WSSS 191100Z 1912/2018 28008KT 9999 FEW018CB SCT020
TEMPO 2005/2009 3000 TSRA FEW012CB BKN015

VCBI 19/11/2017 UTC

TAF VCBI 190940Z 1912/2018 VRB05KT 9999 SCT016 TX31/2008Z
TN24/2000Z PROB40
TEMPO 1912/1918 6000 -TSRA/SHRA FEW012 BKN016 FEW018CB

VECC 19/11/2017 UTC

TAF VECC 191100Z 1912/2018 36005KT 3500 HZ FEW020 SCT100
BECMG 1916/1918 00000KT 2000 BR
BECMG 1922/1924 1400 BR
BECMG 2001/2003 35005KT 2300 HZ
BECMG 2003/2005 3500 HZ
BECMG 2016/2018 00000KT 2000 BR

VOMM 19/11/2017 UTC

TAF VOMM 191100Z 1912/2018 07005KT 6000 FEW020 SCT100
TEMPO 1915/1921 SCT018 FEW025CB BKN100
BECMG 1921/1922 VRB02KT 4000 BR
TEMPO 2000/2003 2000 BR
BECMG 2004/2005 09010KT 6000
TEMPO 2012/2018 SCT018 FEW025CB BKN100

VOTV 19/11/2017 UTC

TAF VOTV 191100Z 1912/2018 23005KT 5000 HZ SCT015 BECMG 1916/1917
10005KT 3000 HZ TEMPO 1922/2002 2000 BR SCT015 BKN080 BECMG
2005/2006 22005KT 6000 TEMPO 2010/2014 SCT015 FEW025CB BECMG
2016/2017 10005KT 3000 HZ

VABB 19/11/2017 UTC

TAF VABB 191100Z 1912/2018 35010G20KT 4000 FU FEW080
BECMG 1915/1917 02007KT 3000 HZ FU SCT035
BECMG 1923/2001 VRB03KT 2000 FU HZ SCT025
BECMG 2003/2005 33006KT 3000 FU FEW100
BECMG 2007/2009 36010G20KT 5000 FU
BECMG 2012/2014 02007KT 4000 FU

VAAH 19/11/2017 UTC

TAF VAAH 191100Z 1912/2018 36005KT 4000 FU HZ NSC
BECMG 2001/2003 02004KT 3000 HZ NSC
BECMG 2004/2006 05006KT 6000
BECMG 2012/2014 34005KT 4000 FUHZ NSC

VILK 19/11/2017 UTC

TAF VILK 191100Z 1912/2018 00000KT 2000 HZ BR FEW020 SCT100
BECMG 2001/2003 1500 BR NIFG
BECMG 2007/2009 35004KT 3000 HZ FEW100

VANP 19/11/2017 UTC

TAF VANP 191100Z 1912/2018 02003KT 3000 HZ FEW020 SCT100
BECMG 2004/2006 05005KT 4000 HZ FEW020 SCT025
BECMG 2012/2014 36003KT 3000 HZ FEW020 SCT100
TEMPO 2000/2003 1500 BR HZ

VRMM 19/11/2017 UTC

TAF VRMM 191100Z 1912/2018 30006KT 9999 FEW018 TEMPO 1912/1918
5000 -SHRA FEW018CB

VOHS 19/11/2017 UTC

TAF VOHS 191100Z 1912/2018 08006KT 6000 SCT015 SCT025 BKN100 BECMG
1916/1918 11003KT 5000 HZ SCT015 SCT100 TEMPO 1923/2003 00000KT
1500
BR SCT010 BECMG 2004/2006 6000 SCT015 SCT100

OPKC 19/11/2017 UTC

TAF OPKC 190633Z 1909/1918 05005G15KT 6000 NSC

OBBI 19/11/2017 UTC

TAF OBBI 191100Z 1912/2018 08008KT 9999 SCT040

OMAA 19/11/2017 UTC

TAF OMAA 191100Z 1912/2018 36008KT 8000 NSC
BECMG 1917/1919 06005KT
BECMG 1921/1923 13008KT
BECMG 2010/2012 33008KT

OMDB 19/11/2017 UTC

TAF OMDB 191052Z 1912/2018 36012KT 9999 FEW040
BECMG 1915/1917 10007KT
BECMG 2008/2010 33010KT
BECMG 2015/2017 08005KT

OOMS 19/11/2017 UTC

TAF OOMS 191100Z 1912/2018 06012KT 8000 FEW025 BECMG 1915/1917
25005KT BECMG 2006/2008 03012KT BECMG 2015/2017 24005KT

OMSJ 19/11/2017 UTC

TAF OMSJ 191052Z 1912/2018 36012KT 9999 FEW030
BECMG 1915/1917 10007KT
BECMG 2008/2010 33012KT
BECMG 2015/2017 09005KT

Malawi, Mauritius, South Africa, Zambia, Zimbabwe

The availability of aerodrome forecasts from overseas locations is dependent on the regular international exchange of data. Some locations may at times be absent. If this problem persists, please advise webav@bom.gov.au

 back to top

FIMP 19/11/2017 UTC

TAF FIMP 191125Z 1912/2018 12010KT 9999 SCT018

FMEE 19/11/2017 UTC

TAF FMEE 191100Z 1912/2018 07015G25KT 9999 FEW025 BECMG 1916/1918
14012KT BECMG 2004/2006 08015KT

FLKK

TAF not available.

FWKI 19/11/2017 UTC

TAF FWKI 190420Z 1906/2012 09006KT 9999 FEW020 SCT080 BECMG 1907/1909
10015KT 9999 FEW030CB SCT035 PROB30 TEMPO 1911/1915 VRB10G20KT
7000 -TSRA FEW025CB BKN030

FAOR 19/11/2017 UTC

TAF FAOR 191000Z 1912/2018 32010KT 9999 SCT045
FM191800 35010KT CAVOK
FM192200 01013KT CAVOK
FM200900 34012KT 9999 SCT045
BECMG 2013/2015 FEW040TCU
PROB30 TEMPO 2015/2018 TS FEW040CB
TX28/2012Z TN14/2003Z

FVHA 19/11/2017 UTC

TAF FVHA 190400Z 1906/2012 07010KT 9999 BKN008 BKN080
BECMG 1908/1910 BKN010 BKN080
PROB30 TEMPO 1912/1918 8000 -TSRA FEW015CB BKN080
BECMG 1920/1922 9999 FEW020CB BKN080
FM192300 CAVOK

FAWK 19/11/2017 UTC

TAF FAWK 190900Z 1910/1918 35008KT CAVOK
TX31/1913Z TN24/1918Z

FABL 19/11/2017 UTC

TAF FABL 191000Z 1912/2012 35008KT CAVOK
BECMG 1916/1918 VRB04KT
BECMG 2000/2002 03005KT
BECMG 2007/2009 34017KT
PROB30 TEMPO 2010/2012 FEW065TCU
TX31/1912Z TN12/2003Z

FALE 19/11/2017 UTC

TAF FALE 191000Z 1912/2018 06012KT CAVOK
BECMG 1916/1918 VRB02KT PROB30 TEMPO
1918/1924 4000 BR NSC BECMG 2001/2003
02008KT FM200800 04018KT CAVOK BECMG
2016/2018 02018G28KT TX31/2011Z TN16/2003Z

YPCC 19/11/2017 UTC

TAF YPCC 191105Z 1912/2012
14014KT 9999 -SHRA SCT030
RMK
T 27 27 27 26 Q 1010 1012 1011 1010

United States (includes Hawaii) and Mexican emergency/alternates

The availability of aerodrome forecasts from overseas locations is dependent on the regular international exchange of data. Some locations may at times be absent. If this problem persists, please advise webav@bom.gov.au

 back to top

PHNL 19/11/2017 UTC

TAF PHNL 191136Z 1912/2018 33007KT P6SM FEW025 SCT050
FM192000 33012G18KT P6SM FEW025 SCT060
FM200500 34007KT P6SM FEW025 SCT050

PHLI 19/11/2017 UTC

TAF PHLI 191136Z 1912/2012 30008KT P6SM VCSH SCT025 BKN050
FM192000 36012G20KT P6SM FEW025 SCT050
FM200500 34008KT P6SM VCSH SCT025 BKN050

PHOG 19/11/2017 UTC

TAF PHOG 191136Z 1912/2012 33008KT P6SM VCSH SCT025 BKN045
FM192000 35012G20KT P6SM FEW025 SCT050
FM200500 01008KT P6SM FEW025 SCT045
AMD LTD TO VIS AND WIND TIL 191600

PHTO 19/11/2017 UTC

TAF PHTO 191136Z 1912/2012 26005KT P6SM FEW025 SCT050
FM192000 35015G23KT P6SM VCSH SCT025 BKN060
FM200500 29005KT P6SM FEW025 SCT045

PKMJ 19/11/2017 UTC

TAF PKMJ 191120Z 1912/2012 10011KT P6SM VCSH SCT015 SCT050 BKN120

KLAX 19/11/2017 UTC

TAF KLAX 191127Z 1912/2018 02006KT P6SM SKC
FM191600 VRB03KT P6SM SKC
FM192000 27010KT P6SM SKC
FM200400 VRB03KT P6SM SKC

KONT 19/11/2017 UTC

TAF KONT 191127Z 1912/2018 VRB06KT P6SM FEW200

KPMD 19/11/2017 UTC

TAF KPMD 191127Z 1912/2012 VRB05KT P6SM SKC
FM191900 03007KT P6SM SKC
FM192300 27008KT P6SM SKC

KSAN 19/11/2017 UTC

TAF KSAN 191127Z 1912/2018 VRB04KT 3SM BR VCFG SCT003
TEMPO 1912/1914 1/4SM FG VV002
FM191600 VRB04KT P6SM FEW005 FEW200
FM192100 30011KT P6SM SCT200
FM200300 VRB04KT 6SM HZ FEW250
TEMPO 2011/2013 1SM BR SCT002

KLAS 19/11/2017 UTC

TAF KLAS 191129Z 1912/2018 21006KT P6SM SCT250
FM191600 VRB05KT P6SM SCT250
FM200300 21006KT P6SM BKN250
FM201600 VRB05KT P6SM BKN250

KOAK 19/11/2017 UTC

TAF KOAK 191120Z 1912/2018 31004KT P6SM FEW250
FM192000 29006KT P6SM SCT250
FM200300 25003KT P6SM BKN180
FM200900 VRB03KT P6SM OVC120

KSFO 19/11/2017 UTC

TAF KSFO 191120Z 1912/2018 VRB03KT P6SM FEW250
FM192000 33004KT P6SM BKN250
FM200100 28005KT P6SM BKN180
FM200800 28003KT P6SM OVC120

KSMF 19/11/2017 UTC

TAF KSMF 191120Z 1912/2012 VRB03KT P6SM SCT250
TEMPO 1914/1917 3SM BR

KSCK 19/11/2017 UTC

TAF KSCK 191120Z 1912/2012 00000KT P6SM SCT250
FM191400 00000KT 4SM BR SCT250
TEMPO 1914/1918 1SM BR
FM191800 VRB03KT P6SM BKN250

KFAT 19/11/2017 UTC

TAF KFAT 191131Z 1912/2012 VRB04KT 4SM BR SKC
TEMPO 1913/1917 2SM BR SKC
FM192000 30003KT P6SM SKC

KJFK 19/11/2017 UTC

TAF KJFK 191127Z 1912/2018 24020KT 6SM -SHRA BR BKN025
FM191300 26022G40KT P6SM SCT025 BKN035
FM191600 28023G39KT P6SM BKN040
FM191900 28023G35KT P6SM SCT050
FM192300 29018G28KT P6SM SCT050
FM200600 29016G25KT P6SM FEW050
FM201400 29018G28KT P6SM SCT050

KPHL 19/11/2017 UTC

TAF KPHL 191120Z 1912/2018 27015G31KT P6SM SCT015 BKN070
FM191300 27014G34KT P6SM SCT025 BKN080
FM191400 29020G41KT P6SM SCT035
FM191700 29015G33KT P6SM SKC
FM192100 29012G25KT P6SM SKC
FM200800 28011KT P6SM SKC

KPIT 19/11/2017 UTC

TAF KPIT 191126Z 1912/2018 29015G25KT P6SM OVC015
FM191400 29015G25KT P6SM OVC025
FM191900 29015G25KT P6SM -SHSN OVC020
FM200000 28012G22KT P6SM OVC025
FM200600 26012KT P6SM BKN035
FM201200 24012KT P6SM SCT100

KDEN 19/11/2017 UTC

TAF KDEN 191137Z 1912/2018 18007KT P6SM BKN250
FM200500 21012KT P6SM FEW150 BKN220
FM201500 25014KT P6SM FEW140 BKN220

KMCI 19/11/2017 UTC

TAF KMCI 191133Z 1912/2012 28005KT P6SM SKC
FM191700 21008KT P6SM SKC
FM200200 20013KT P6SM FEW250

KDFW 19/11/2017 UTC

TAF KDFW 191135Z 1912/2018 35006KT P6SM SKC
FM200300 15005KT P6SM SCT300
FM201700 18011KT P6SM BKN300

KAUS 19/11/2017 UTC

TAF KAUS 191127Z 1912/2018 35007KT P6SM FEW250
FM191600 03005KT P6SM SCT250

KELP 19/11/2017 UTC

TAF KELP 191120Z 1912/2012 08006KT P6SM FEW250

KIAH 19/11/2017 UTC

TAF KIAH 191120Z 1912/2018 01012KT P6SM SKC
FM192100 36008KT P6SM FEW250
FM200000 02003KT P6SM SCT250
FM201500 15006KT P6SM BKN150

KSAT 19/11/2017 UTC

TAF KSAT 191127Z 1912/2018 36005KT P6SM FEW250
FM191600 08005KT P6SM SCT250

KTUS 19/11/2017 UTC

TAF KTUS 191140Z 1912/2012 14008KT P6SM FEW250
FM191500 12010G18KT P6SM SKC
FM192200 04008KT P6SM SKC
FM200700 14008KT P6SM SCT250

MMCU 19/11/2017 UTC

TAF MMCU 190520Z 1906/2006 08006KT P6SM SCT250
FM191800 12010KT P6SM BKN25
FM200500 10006KT P6SM SCT250

MMHO 19/11/2017 UTC

TAF MMHO 190429Z 1906/2006 32005KT P6SM SKC
FM191800 12010KT P6SM BKN250
FM200500 12005KT P6SM SCT250

MMLT 19/11/2017 UTC

TAF MMLT 190510Z 1906/2006 00000KT P6SM SCT250
FM191900 05015KT P6SM SCT200
FM200300 03008KT P6SM SCT250

MMSD 19/11/2017 UTC

TAF MMSD 190510Z 1906/2006 26005KT P6SM SKC
FM191800 34010KT P6SM SKC
M200300 26005KT P6SM SKC

Papua New Guinea, Southwest Pacific

The availability of aerodrome forecasts from overseas locations is dependent on the regular international exchange of data. Some locations may at times be absent. If this problem persists, please advise webav@bom.gov.au

 back to top

NWWW 19/11/2017 UTC

TAF NWWW 191100Z 1912/2012 08005KT 9999 FEW035 BECMG 1921/1923 15015KT BECMG 2007/2009 11005KT

NFFN 19/11/2017 UTC

TAF NFFN 191128Z 1912/2012
13005KT 9999 SCT025 SCT045
BECMG 1922/1924 27010KT
PROB30 TEMPO 2002/2006 5000 TSRA FEW018CB
BECMG 2004/2006 12007KT

NFNA 19/11/2017 UTC

TAF NFNA 191130Z 1912/2012
16008KT 9999 BKN018 BKN045
PROB30 TEMPO 1916/1920 5000 SHRA BKN015

NFTF 19/11/2017 UTC

TAF NFTF 191129Z 1912/2012
03008KT 9999 -SHRA FEW008 SCT016 BKN100
PROB30 TEMPO 1912/1924 5000 TSRA SCT006 BKN015CB

NSTU 19/11/2017 UTC

TAF NSTU 191136Z 1912/2012 09011KT P6SM FEW025 SCT040 BKN100

NVVV 19/11/2017 UTC

TAF NVVV 191000Z 1912/2012 VRB03KT 9999 SCT018 BKN025 OVC040
INTER 1912/1918 9000 -SHRA BKN018

NCRG 19/11/2017 UTC

TAF NCRG 191129Z 1912/2012
12008KT 9999 SCT014 BKN040

NTAA 19/11/2017 UTC

TAF NTAA 191100Z 1912/2018 VRB05KT 9999 FEW020 SCT045 PROB40 TEMPO
1920/2003 27010KT

NTTG

TAF not available.

NTTO

TAF not available.

NSFA 19/11/2017 UTC

TAF NSFA 191130Z 1912/2012
07010KT 9999 -SHRA SCT020 BKN040

ANYN 19/11/2017 UTC

TAF ANYN 191009Z 1912/2012 02008KT 9999 SCT018
T 26 26 29 31
Q 1007 1005 1006 1008

AGGH 19/11/2017 UTC

TAF AGGH 191032Z 1912/2012 VRB03KT 9999 FEW015 BKN100

T 25 23 23 27 Q 1009 1008 1008 1009

AGGM 19/11/2017 UTC

TAF AGGM 191032Z 1912/2012 VRB03KT 9999 FEW015 BKN100

Q 1009 1008 1008 1009

AGGN 19/11/2017 UTC

TAF AGGN 191032Z 1912/2012 VRB03KT 9999 FEW015 BKN100

Q 1009 1008 1008 1009

AYPY 19/11/2017 UTC

TAF AYPY 191007Z 1912/2012 18006KT 9999 -SHRA BKN025 PRB20
1919/2021 0700 FG

AYNZ 19/11/2017 UTC

TAF AYNZ 190430Z 1908/1920 09007KT 9999 -SHRA SCT016 SCT050 BKN120
INTER 1908/1920 6000 +SHRA BKN008
Q 1006 1009 1007 1005

AYMD 19/11/2017 UTC

TAF AYMD 190432Z 1908/1920 VRB03KT 9999 -SHRA SCT016 SCT040 BKN120
INTER 1908/1920 6000 +SHRA BKN008
Q 1007 1009 1008 1006

AYMH

TAF not available.

AYTA

TAF not available.

PKMJ 19/11/2017 UTC

TAF PKMJ 191120Z 1912/2012 10011KT P6SM VCSH SCT015 SCT050 BKN120

NGTA 19/11/2017 UTC

TAF NGTA 191131Z 1912/2012
10008KT 9000 -SHRA SCT008 BKN018 OVC090
PROB30 TEMPO 1912/1924 5000 TSRA FEW018CB

PTRO 19/11/2017 UTC

TAF PTRO 191120Z 1912/2012 06008KT P6SM VCSH SCT016 SCT120
FM192300 08014KT P6SM VCSH SCT016 SCT120

YLHI 19/11/2017 UTC

TAF YLHI 191058Z 1912/2012
10014KT 9999 -SHRA SCT020 BKN040
RMK
T 19 18 18 20 Q 1020 1019 1019 1020

YSNF 19/11/2017 UTC

TAF YSNF 191100Z 1912/2012
18012KT 9999 -SHRA SCT015 BKN020
FM191500 15010KT 9999 -SHRA SCT012 BKN020
INTER 1912/1922 4000 SHRA BKN010
INTER 2006/2012 4000 SHRA BKN010
RMK
T 17 17 17 19 Q 1014 1013 1013 1015

Indonesia, Timor Leste, Papua New Guinea

The availability of aerodrome forecasts from overseas locations is dependent on the regular international exchange of data. Some locations may at times be absent. If this problem persists, please advise webav@bom.gov.au

 back to top

WAAA 19/11/2017 UTC

TAF WAAA 191100Z 1912/2018 10004KT 8000 SCT018 PROB40 TEMPO 1915/1919 6000 -RA FEW017CB
BECMG 2001/2003 34010KT 9999 FEW020 TEMPO 2006/2010 5000 -TSRA FEW017CB SCT018 BECMG
2011/2013 09003KT 8000

WAMM 19/11/2017 UTC

TAF WAMM 191100Z 1912/2018 07002KT 9999 SCT022
BECMG 1923/2001 32008KT

WAMP

TAF not available.

WAJJ 19/11/2017 UTC

TAF WAJJ 191100Z 1912/2012 29012KT 9999 SCT014
BECMG 1917/1919 SCT009
BECMG 1921/1923 13005KT SCT014

WAPP 19/11/2017 UTC

TAF WAPP 191100Z 1912/2012 34006KT 9999 SCT019
BECMG 1923/2001 21006KT

WABB 19/11/2017 UTC

TAF WABB 191100Z 1912/2018 04005KT 9999 SCT018
TEMPO 1915/1918 7000 RA FEW017CB
BECMG 1920/1922 00000KT

WPDL 19/11/2017 UTC

TAF WPDL 190657Z 1908/1920
01010KT 9999 SCT025
FM191000 15006KT 9999 SCT025
PROB30 TEMPO 1908/1910 VRB25G35KT 1000 TSRA BKN015 SCT025CB
RMK
T 29 27 26 26 Q 1007 1008 1009 1008

WATT 19/11/2017 UTC

TAF WATT 191100Z 1912/2012 06004KT 7000 BKN016
TEMPO 1912/1915 4000 -RA BKN014
PROB40 TEMPO 2003/2007 -TSRA FEW015CB BKN015

WIII 19/11/2017 UTC

TAF WIII 191100Z 1912/2018 20005KT 6000 FEW019CB SCT020
BECMG 1914/1916 VRB03KT 5000 HZ SCT020
BECMG 2002/2004 35010KT 9000 NSW

WIHH 19/11/2017 UTC

TAF WIHH 191100Z 1912/2012 21006KT 5000 HZ SCT021 TEMPO 1912/1914 4000 -RA FEW018CB
SCT019 BECMG 1915/1917 08004KT 4000 HZ SCT020 BECMG 2002/2004 16009KT 7000 FEW025

FTID34 WIHH 191100

WIMM 19/11/2017 UTC

TAF WIMM 191100Z 1912/2012 VRB05KT 4500 HZ SCT018
TEMPO 1918/1921 24008KT 3000 -TSRA FEW017CB SCT018
BECMG 2003/2005 34010KT 9999 NSW

WARR 19/11/2017 UTC

TAF WARR 191100Z 1912/2012 20005KT 6000 SCT018
BECMG 1914/1916 27005KT 4000 HZ FEW020
BECMG 2000/2002 30010KT 9000 NSW SCT020
TEMPO 2006/2010 4000 TSRA SCT018CB

WADD 19/11/2017 UTC

TAF WADD 191100Z 1912/2012 VRB05KT 9999 FEW015CB SCT016
TEMPO 1912/1916 5000 RA
TEMPO 2006/2010 4000 TSRA FEW013CB BKN014

AYPY 19/11/2017 UTC

TAF AYPY 191007Z 1912/2012 18006KT 9999 -SHRA BKN025 PRB20
1919/2021 0700 FG

AYNZ 19/11/2017 UTC

TAF AYNZ 190430Z 1908/1920 09007KT 9999 -SHRA SCT016 SCT050 BKN120
INTER 1908/1920 6000 +SHRA BKN008
Q 1006 1009 1007 1005

AYMH

TAF not available.

AYMD 19/11/2017 UTC

TAF AYMD 190432Z 1908/1920 VRB03KT 9999 -SHRA SCT016 SCT040 BKN120
INTER 1908/1920 6000 +SHRA BKN008
Q 1007 1009 1008 1006

AYHK

TAF not available.

AYTK

TAF not available.

AYVN

TAF not available.

AYWK 19/11/2017 UTC

TAF AYWK 190433Z 1908/1920 34007KT 9999 -SHRA SCT016 SCT040 BKN120
INTER 1908/1920 6000 +SHRA BKN008
Q 1007 1009 1008 1006

AYGA

TAF not available.

AYDU

TAF not available.

AYMS

TAF not available.

AYRB

TAF not available.

AYTB

TAF not available.

AYKI

TAF not available.

AYKT

TAF not available.

AYBK

TAF not available.

AYKM

TAF not available.

AYKY

TAF not available.

AYMO 19/11/2017 UTC

TAF AYMO 190434Z 1908/1920 33006KT 9999 -SHRA SCT018 BKN140
Q 1007 1009 1008 1006

AYKV

TAF not available.

Accessing this Service

By entering this site, you acknowledge that this information is produced solely for use by the aviation industry, and you are aware that any information for the purposes of flight planning should be obtained from Airservices Australia.